sensor_id;sensor_type;location;lat;lon;timestamp;temperature;humidity
2202;DHT22;1107;48.654;9.250;2023-05-20T00:02:10;12.30;1.00
2202;DHT22;1107;48.654;9.250;2023-05-20T00:04:37;12.30;1.00
2202;DHT22;1107;48.654;9.250;2023-05-20T00:07:07;12.30;1.00
2202;DHT22;1107;48.654;9.250;2023-05-20T00:09:33;12.30;99.90
2202;DHT22;1107;48.654;9.250;2023-05-20T00:12:00;12.30;99.90
2202;DHT22;1107;48.654;9.250;2023-05-20T00:14:29;12.30;99.90
2202;DHT22;1107;48.654;9.250;2023-05-20T00:16:56;12.30;1.00
2202;DHT22;1107;48.654;9.250;2023-05-20T00:19:23;12.30;1.00
2202;DHT22;1107;48.654;9.250;2023-05-20T00:21:50;12.30;1.00
2202;DHT22;1107;48.654;9.250;2023-05-20T00:24:17;12.30;1.00
2202;DHT22;1107;48.654;9.250;2023-05-20T00:26:43;12.30;1.00
2202;DHT22;1107;48.654;9.250;2023-05-20T00:29:10;12.30;1.00
2202;DHT22;1107;48.654;9.250;2023-05-20T00:31:39;12.40;1.00
2202;DHT22;1107;48.654;9.250;2023-05-20T00:34:06;12.40;1.00
2202;DHT22;1107;48.654;9.250;2023-05-20T00:36:34;12.40;1.00
2202;DHT22;1107;48.654;9.250;2023-05-20T00:39:01;12.40;1.00
2202;DHT22;1107;48.654;9.250;2023-05-20T00:41:28;12.40;1.00
2202;DHT22;1107;48.654;9.250;2023-05-20T00:43:55;12.30;1.00
2202;DHT22;1107;48.654;9.250;2023-05-20T00:46:23;12.30;1.00
2202;DHT22;1107;48.654;9.250;2023-05-20T00:48:52;12.30;1.00
2202;DHT22;1107;48.654;9.250;2023-05-20T00:51:19;12.30;1.00
2202;DHT22;1107;48.654;9.250;2023-05-20T00:53:46;12.30;1.00
2202;DHT22;1107;48.654;9.250;2023-05-20T00:56:13;12.40;1.00
2202;DHT22;1107;48.654;9.250;2023-05-20T00:58:40;12.40;1.00
2202;DHT22;1107;48.654;9.250;2023-05-20T01:01:07;12.30;99.90
2202;DHT22;1107;48.654;9.250;2023-05-20T01:03:34;12.40;99.90
2202;DHT22;1107;48.654;9.250;2023-05-20T01:06:03;12.30;99.90
2202;DHT22;1107;48.654;9.250;2023-05-20T01:08:30;12.30;99.90
2202;DHT22;1107;48.654;9.250;2023-05-20T01:11:03;12.30;99.90
2202;DHT22;1107;48.654;9.250;2023-05-20T01:13:35;12.20;1.00
2202;DHT22;1107;48.654;9.250;2023-05-20T01:16:05;12.30;1.00
2202;DHT22;1107;48.654;9.250;2023-05-20T01:18:32;12.20;1.00
2202;DHT22;1107;48.654;9.250;2023-05-20T01:21:02;12.30;1.00
2202;DHT22;1107;48.654;9.250;2023-05-20T01:23:33;12.30;1.00
2202;DHT22;1107;48.654;9.250;2023-05-20T01:26:03;12.20;1.00
2202;DHT22;1107;48.654;9.250;2023-05-20T01:28:30;12.20;1.00
2202;DHT22;1107;48.654;9.250;2023-05-20T01:30:59;12.20;1.00
2202;DHT22;1107;48.654;9.250;2023-05-20T01:33:28;12.00;1.00
2202;DHT22;1107;48.654;9.250;2023-05-20T01:35:56;12.10;1.00
2202;DHT22;1107;48.654;9.250;2023-05-20T01:38:24;12.10;1.00
2202;DHT22;1107;48.654;9.250;2023-05-20T01:40:53;12.00;1.00
2202;DHT22;1107;48.654;9.250;2023-05-20T01:43:21;12.00;1.00
2202;DHT22;1107;48.654;9.250;2023-05-20T01:45:48;11.90;1.00
2202;DHT22;1107;48.654;9.250;2023-05-20T01:48:15;11.80;1.00
2202;DHT22;1107;48.654;9.250;2023-05-20T01:50:42;11.70;1.00
2202;DHT22;1107;48.654;9.250;2023-05-20T01:53:09;11.70;1.00
2202;DHT22;1107;48.654;9.250;2023-05-20T01:55:37;11.60;1.00
2202;DHT22;1107;48.654;9.250;2023-05-20T01:58:06;11.60;1.00
2202;DHT22;1107;48.654;9.250;2023-05-20T02:00:33;11.50;1.00
2202;DHT22;1107;48.654;9.250;2023-05-20T02:03:00;11.50;1.00
2202;DHT22;1107;48.654;9.250;2023-05-20T02:05:28;11.50;1.00
2202;DHT22;1107;48.654;9.250;2023-05-20T02:07:55;11.40;1.00
2202;DHT22;1107;48.654;9.250;2023-05-20T02:10:22;11.40;1.00
2202;DHT22;1107;48.654;9.250;2023-05-20T02:12:49;11.40;1.00
2202;DHT22;1107;48.654;9.250;2023-05-20T02:15:17;11.30;1.00
2202;DHT22;1107;48.654;9.250;2023-05-20T02:17:45;11.40;1.00
2202;DHT22;1107;48.654;9.250;2023-05-20T02:20:12;11.40;1.00
2202;DHT22;1107;48.654;9.250;2023-05-20T02:22:39;11.40;1.00
2202;DHT22;1107;48.654;9.250;2023-05-20T02:25:07;11.40;1.00
2202;DHT22;1107;48.654;9.250;2023-05-20T02:27:34;11.40;1.00
2202;DHT22;1107;48.654;9.250;2023-05-20T02:30:01;11.40;1.00
2202;DHT22;1107;48.654;9.250;2023-05-20T02:32:29;11.50;1.00
2202;DHT22;1107;48.654;9.250;2023-05-20T02:34:58;11.50;1.00
2202;DHT22;1107;48.654;9.250;2023-05-20T02:37:25;11.50;1.00
2202;DHT22;1107;48.654;9.250;2023-05-20T02:39:53;11.50;1.00
2202;DHT22;1107;48.654;9.250;2023-05-20T02:42:20;11.50;1.00
2202;DHT22;1107;48.654;9.250;2023-05-20T02:44:47;11.50;1.00
2202;DHT22;1107;48.654;9.250;2023-05-20T02:47:14;11.50;1.00
2202;DHT22;1107;48.654;9.250;2023-05-20T02:49:42;11.50;1.00
2202;DHT22;1107;48.654;9.250;2023-05-20T02:52:09;11.50;1.00
2202;DHT22;1107;48.654;9.250;2023-05-20T02:54:36;11.50;1.00
2202;DHT22;1107;48.654;9.250;2023-05-20T02:57:04;11.50;1.00
2202;DHT22;1107;48.654;9.250;2023-05-20T02:59:30;11.40;1.00
2202;DHT22;1107;48.654;9.250;2023-05-20T03:01:57;11.40;1.00
2202;DHT22;1107;48.654;9.250;2023-05-20T03:04:24;11.30;1.00
2202;DHT22;1107;48.654;9.250;2023-05-20T03:06:53;11.30;1.00
2202;DHT22;1107;48.654;9.250;2023-05-20T03:09:22;11.20;1.00
2202;DHT22;1107;48.654;9.250;2023-05-20T03:11:49;11.20;1.00
2202;DHT22;1107;48.654;9.250;2023-05-20T03:14:16;11.20;1.00
2202;DHT22;1107;48.654;9.250;2023-05-20T03:16:43;11.20;1.00
2202;DHT22;1107;48.654;9.250;2023-05-20T03:19:10;11.20;1.00
2202;DHT22;1107;48.654;9.250;2023-05-20T03:21:37;11.20;1.00
2202;DHT22;1107;48.654;9.250;2023-05-20T03:24:05;11.20;1.00
2202;DHT22;1107;48.654;9.250;2023-05-20T03:26:33;11.20;1.00
2202;DHT22;1107;48.654;9.250;2023-05-20T03:29:02;11.20;1.00
2202;DHT22;1107;48.654;9.250;2023-05-20T03:31:29;11.20;1.00
2202;DHT22;1107;48.654;9.250;2023-05-20T03:33:56;11.10;1.00
2202;DHT22;1107;48.654;9.250;2023-05-20T03:36:23;11.10;1.00
2202;DHT22;1107;48.654;9.250;2023-05-20T03:38:50;11.10;1.00
2202;DHT22;1107;48.654;9.250;2023-05-20T03:41:18;11.10;1.00
2202;DHT22;1107;48.654;9.250;2023-05-20T03:43:45;11.10;1.00
2202;DHT22;1107;48.654;9.250;2023-05-20T03:46:12;11.20;1.00
2202;DHT22;1107;48.654;9.250;2023-05-20T03:48:39;11.20;1.00
2202;DHT22;1107;48.654;9.250;2023-05-20T03:51:06;11.30;1.00
2202;DHT22;1107;48.654;9.250;2023-05-20T03:53:33;11.30;1.00
2202;DHT22;1107;48.654;9.250;2023-05-20T03:56:00;11.40;1.00
2202;DHT22;1107;48.654;9.250;2023-05-20T03:58:28;11.40;1.00
2202;DHT22;1107;48.654;9.250;2023-05-20T04:00:56;11.40;1.00
2202;DHT22;1107;48.654;9.250;2023-05-20T04:03:23;11.40;1.00
2202;DHT22;1107;48.654;9.250;2023-05-20T04:05:50;11.40;1.00
2202;DHT22;1107;48.654;9.250;2023-05-20T04:08:17;11.50;1.00
2202;DHT22;1107;48.654;9.250;2023-05-20T04:10:45;11.50;1.00
2202;DHT22;1107;48.654;9.250;2023-05-20T04:13:12;11.60;1.00
2202;DHT22;1107;48.654;9.250;2023-05-20T04:15:41;11.60;1.00
2202;DHT22;1107;48.654;9.250;2023-05-20T04:18:08;11.60;1.00
2202;DHT22;1107;48.654;9.250;2023-05-20T04:20:35;11.60;1.00
2202;DHT22;1107;48.654;9.250;2023-05-20T04:23:02;11.70;1.00
2202;DHT22;1107;48.654;9.250;2023-05-20T04:25:29;11.80;1.00
2202;DHT22;1107;48.654;9.250;2023-05-20T04:27:56;11.80;1.00
2202;DHT22;1107;48.654;9.250;2023-05-20T04:30:24;11.80;1.00
2202;DHT22;1107;48.654;9.250;2023-05-20T04:32:53;11.90;1.00
2202;DHT22;1107;48.654;9.250;2023-05-20T04:35:20;11.90;1.00
2202;DHT22;1107;48.654;9.250;2023-05-20T04:37:50;12.00;1.00
2202;DHT22;1107;48.654;9.250;2023-05-20T04:40:19;12.00;1.00
2202;DHT22;1107;48.654;9.250;2023-05-20T04:42:47;12.10;1.00
2202;DHT22;1107;48.654;9.250;2023-05-20T04:45:14;12.10;1.00
2202;DHT22;1107;48.654;9.250;2023-05-20T04:47:41;12.20;1.00
2202;DHT22;1107;48.654;9.250;2023-05-20T04:50:10;12.20;1.00
2202;DHT22;1107;48.654;9.250;2023-05-20T04:52:38;12.20;1.00
2202;DHT22;1107;48.654;9.250;2023-05-20T04:55:07;12.30;1.00
2202;DHT22;1107;48.654;9.250;2023-05-20T04:57:34;12.30;1.00
2202;DHT22;1107;48.654;9.250;2023-05-20T05:00:04;12.40;1.00
2202;DHT22;1107;48.654;9.250;2023-05-20T05:02:32;12.40;1.00
2202;DHT22;1107;48.654;9.250;2023-05-20T05:04:59;12.40;1.00
2202;DHT22;1107;48.654;9.250;2023-05-20T05:07:27;12.50;1.00
2202;DHT22;1107;48.654;9.250;2023-05-20T05:09:54;12.60;1.00
2202;DHT22;1107;48.654;9.250;2023-05-20T05:12:21;12.60;1.00
2202;DHT22;1107;48.654;9.250;2023-05-20T05:14:48;12.70;1.00
2202;DHT22;1107;48.654;9.250;2023-05-20T05:17:15;12.80;1.00
2202;DHT22;1107;48.654;9.250;2023-05-20T05:19:42;12.90;1.00
2202;DHT22;1107;48.654;9.250;2023-05-20T05:22:09;12.90;1.00
2202;DHT22;1107;48.654;9.250;2023-05-20T05:24:37;13.00;1.00
2202;DHT22;1107;48.654;9.250;2023-05-20T05:27:04;13.00;1.00
2202;DHT22;1107;48.654;9.250;2023-05-20T05:29:31;13.10;1.00
2202;DHT22;1107;48.654;9.250;2023-05-20T05:31:58;13.10;1.00
2202;DHT22;1107;48.654;9.250;2023-05-20T05:34:25;13.10;1.00
2202;DHT22;1107;48.654;9.250;2023-05-20T05:36:52;13.20;1.00
2202;DHT22;1107;48.654;9.250;2023-05-20T05:39:19;13.30;1.00
2202;DHT22;1107;48.654;9.250;2023-05-20T05:41:47;13.40;1.00
2202;DHT22;1107;48.654;9.250;2023-05-20T05:44:14;13.60;1.00
2202;DHT22;1107;48.654;9.250;2023-05-20T05:46:41;13.70;99.90
2202;DHT22;1107;48.654;9.250;2023-05-20T05:49:08;13.80;99.90
2202;DHT22;1107;48.654;9.250;2023-05-20T05:51:35;13.80;99.90
2202;DHT22;1107;48.654;9.250;2023-05-20T05:54:02;13.80;99.90
2202;DHT22;1107;48.654;9.250;2023-05-20T05:56:29;13.80;99.90
2202;DHT22;1107;48.654;9.250;2023-05-20T05:58:57;13.80;99.90
2202;DHT22;1107;48.654;9.250;2023-05-20T06:01:24;13.90;99.90
2202;DHT22;1107;48.654;9.250;2023-05-20T06:03:51;13.90;57.20
2202;DHT22;1107;48.654;9.250;2023-05-20T06:06:18;13.90;1.00
2202;DHT22;1107;48.654;9.250;2023-05-20T06:08:45;14.00;1.00
2202;DHT22;1107;48.654;9.250;2023-05-20T06:11:12;14.00;1.00
2202;DHT22;1107;48.654;9.250;2023-05-20T06:13:39;14.10;1.00
2202;DHT22;1107;48.654;9.250;2023-05-20T06:16:07;14.20;1.00
2202;DHT22;1107;48.654;9.250;2023-05-20T06:18:34;14.10;1.00
2202;DHT22;1107;48.654;9.250;2023-05-20T06:21:02;14.10;1.00
2202;DHT22;1107;48.654;9.250;2023-05-20T06:23:29;14.20;99.90
2202;DHT22;1107;48.654;9.250;2023-05-20T06:25:57;14.30;99.90
2202;DHT22;1107;48.654;9.250;2023-05-20T06:28:24;14.30;1.00
2202;DHT22;1107;48.654;9.250;2023-05-20T06:30:52;14.40;99.90
2202;DHT22;1107;48.654;9.250;2023-05-20T06:33:22;14.50;99.90
2202;DHT22;1107;48.654;9.250;2023-05-20T06:35:50;14.60;99.90
2202;DHT22;1107;48.654;9.250;2023-05-20T06:38:17;14.70;1.00
2202;DHT22;1107;48.654;9.250;2023-05-20T06:40:44;14.90;1.00
2202;DHT22;1107;48.654;9.250;2023-05-20T06:43:11;15.00;90.80
2202;DHT22;1107;48.654;9.250;2023-05-20T06:45:38;15.20;99.90
2202;DHT22;1107;48.654;9.250;2023-05-20T06:48:05;15.40;1.00
2202;DHT22;1107;48.654;9.250;2023-05-20T06:50:34;15.70;1.00
2202;DHT22;1107;48.654;9.250;2023-05-20T06:53:01;16.10;1.00
2202;DHT22;1107;48.654;9.250;2023-05-20T06:55:29;16.30;99.90
2202;DHT22;1107;48.654;9.250;2023-05-20T06:57:56;16.50;99.90
2202;DHT22;1107;48.654;9.250;2023-05-20T07:00:23;16.60;99.90
2202;DHT22;1107;48.654;9.250;2023-05-20T07:02:50;16.60;99.90
2202;DHT22;1107;48.654;9.250;2023-05-20T07:05:17;16.40;99.90
2202;DHT22;1107;48.654;9.250;2023-05-20T07:07:45;16.40;99.90
2202;DHT22;1107;48.654;9.250;2023-05-20T07:10:12;16.60;99.90
2202;DHT22;1107;48.654;9.250;2023-05-20T07:12:39;16.70;99.90
2202;DHT22;1107;48.654;9.250;2023-05-20T07:15:07;16.70;99.90
2202;DHT22;1107;48.654;9.250;2023-05-20T07:17:34;16.70;99.90
2202;DHT22;1107;48.654;9.250;2023-05-20T07:20:01;17.10;99.90
2202;DHT22;1107;48.654;9.250;2023-05-20T07:22:29;17.30;99.90
2202;DHT22;1107;48.654;9.250;2023-05-20T07:24:57;17.90;99.90
2202;DHT22;1107;48.654;9.250;2023-05-20T07:27:25;19.10;99.90
2202;DHT22;1107;48.654;9.250;2023-05-20T07:29:52;18.90;99.90
2202;DHT22;1107;48.654;9.250;2023-05-20T07:32:19;18.60;99.90
2202;DHT22;1107;48.654;9.250;2023-05-20T07:34:46;18.40;99.90
2202;DHT22;1107;48.654;9.250;2023-05-20T07:37:13;18.20;99.90
2202;DHT22;1107;48.654;9.250;2023-05-20T07:39:41;18.00;99.90
2202;DHT22;1107;48.654;9.250;2023-05-20T07:42:09;17.70;99.90
2202;DHT22;1107;48.654;9.250;2023-05-20T07:44:36;17.30;99.90
2202;DHT22;1107;48.654;9.250;2023-05-20T07:47:03;16.90;99.90
2202;DHT22;1107;48.654;9.250;2023-05-20T07:49:30;16.80;99.90
2202;DHT22;1107;48.654;9.250;2023-05-20T07:51:57;16.80;99.90
2202;DHT22;1107;48.654;9.250;2023-05-20T07:54:25;17.40;99.90
2202;DHT22;1107;48.654;9.250;2023-05-20T07:56:52;17.40;99.90
2202;DHT22;1107;48.654;9.250;2023-05-20T07:59:20;17.20;99.90
2202;DHT22;1107;48.654;9.250;2023-05-20T08:01:47;17.00;99.90
2202;DHT22;1107;48.654;9.250;2023-05-20T08:04:14;16.90;99.90
2202;DHT22;1107;48.654;9.250;2023-05-20T08:06:41;16.90;99.90
2202;DHT22;1107;48.654;9.250;2023-05-20T08:09:09;16.90;99.90
2202;DHT22;1107;48.654;9.250;2023-05-20T08:11:36;16.80;99.90
2202;DHT22;1107;48.654;9.250;2023-05-20T08:14:03;16.70;99.90
2202;DHT22;1107;48.654;9.250;2023-05-20T08:16:31;16.50;99.90
2202;DHT22;1107;48.654;9.250;2023-05-20T08:18:58;16.40;99.90
2202;DHT22;1107;48.654;9.250;2023-05-20T08:21:25;16.30;99.90
2202;DHT22;1107;48.654;9.250;2023-05-20T08:23:53;16.40;99.90
2202;DHT22;1107;48.654;9.250;2023-05-20T08:26:20;16.50;99.90
2202;DHT22;1107;48.654;9.250;2023-05-20T08:28:47;16.70;99.90
2202;DHT22;1107;48.654;9.250;2023-05-20T08:31:14;16.90;99.90
2202;DHT22;1107;48.654;9.250;2023-05-20T08:33:44;17.20;99.90
2202;DHT22;1107;48.654;9.250;2023-05-20T08:36:10;17.50;99.90
2202;DHT22;1107;48.654;9.250;2023-05-20T08:38:37;17.80;99.90
2202;DHT22;1107;48.654;9.250;2023-05-20T08:41:05;17.90;99.90
2202;DHT22;1107;48.654;9.250;2023-05-20T08:43:32;18.30;99.90
2202;DHT22;1107;48.654;9.250;2023-05-20T08:45:59;18.60;99.90
2202;DHT22;1107;48.654;9.250;2023-05-20T08:48:28;18.90;99.90
2202;DHT22;1107;48.654;9.250;2023-05-20T08:50:57;19.40;99.90
2202;DHT22;1107;48.654;9.250;2023-05-20T08:53:25;20.30;99.90
2202;DHT22;1107;48.654;9.250;2023-05-20T08:55:53;21.60;99.90
2202;DHT22;1107;48.654;9.250;2023-05-20T08:58:22;21.90;99.90
2202;DHT22;1107;48.654;9.250;2023-05-20T09:00:49;21.90;99.90
2202;DHT22;1107;48.654;9.250;2023-05-20T09:03:17;21.60;99.90
2202;DHT22;1107;48.654;9.250;2023-05-20T09:05:46;21.60;99.90
2202;DHT22;1107;48.654;9.250;2023-05-20T09:08:14;21.30;99.90
2202;DHT22;1107;48.654;9.250;2023-05-20T09:10:41;20.60;99.90
2202;DHT22;1107;48.654;9.250;2023-05-20T09:13:09;20.20;99.90
2202;DHT22;1107;48.654;9.250;2023-05-20T09:15:36;19.90;99.90
2202;DHT22;1107;48.654;9.250;2023-05-20T09:18:05;19.90;99.90
2202;DHT22;1107;48.654;9.250;2023-05-20T09:20:33;19.90;99.90
2202;DHT22;1107;48.654;9.250;2023-05-20T09:23:03;20.20;99.90
2202;DHT22;1107;48.654;9.250;2023-05-20T09:25:32;20.30;99.90
2202;DHT22;1107;48.654;9.250;2023-05-20T09:27:59;21.10;99.90
2202;DHT22;1107;48.654;9.250;2023-05-20T09:30:26;22.20;99.90
2202;DHT22;1107;48.654;9.250;2023-05-20T09:32:54;23.60;99.90
2202;DHT22;1107;48.654;9.250;2023-05-20T09:35:21;23.70;99.90
2202;DHT22;1107;48.654;9.250;2023-05-20T09:37:51;24.50;99.90
2202;DHT22;1107;48.654;9.250;2023-05-20T09:40:23;25.40;99.90
2202;DHT22;1107;48.654;9.250;2023-05-20T09:42:56;24.50;99.90
2202;DHT22;1107;48.654;9.250;2023-05-20T09:45:23;23.60;99.90
2202;DHT22;1107;48.654;9.250;2023-05-20T09:47:51;23.50;99.90
2202;DHT22;1107;48.654;9.250;2023-05-20T09:50:18;23.60;99.90
2202;DHT22;1107;48.654;9.250;2023-05-20T09:52:47;23.90;99.90
2202;DHT22;1107;48.654;9.250;2023-05-20T09:55:16;23.50;99.90
2202;DHT22;1107;48.654;9.250;2023-05-20T09:57:44;23.20;99.90
2202;DHT22;1107;48.654;9.250;2023-05-20T10:00:14;24.10;99.90
2202;DHT22;1107;48.654;9.250;2023-05-20T10:02:43;23.40;99.90
2202;DHT22;1107;48.654;9.250;2023-05-20T10:05:14;23.70;99.90
2202;DHT22;1107;48.654;9.250;2023-05-20T10:10:49;22.90;99.90
2202;DHT22;1107;48.654;9.250;2023-05-20T10:13:40;22.60;99.90
2202;DHT22;1107;48.654;9.250;2023-05-20T10:16:20;22.50;99.90
2202;DHT22;1107;48.654;9.250;2023-05-20T10:18:59;22.40;99.90
2202;DHT22;1107;48.654;9.250;2023-05-20T10:21:31;22.80;99.90
2202;DHT22;1107;48.654;9.250;2023-05-20T10:24:05;23.20;99.90
2202;DHT22;1107;48.654;9.250;2023-05-20T10:26:35;23.80;99.90
2202;DHT22;1107;48.654;9.250;2023-05-20T10:29:14;23.60;99.90
2202;DHT22;1107;48.654;9.250;2023-05-20T10:31:48;23.20;99.90
2202;DHT22;1107;48.654;9.250;2023-05-20T10:34:16;22.80;99.90
2202;DHT22;1107;48.654;9.250;2023-05-20T10:36:45;22.80;99.90
2202;DHT22;1107;48.654;9.250;2023-05-20T10:39:14;22.80;99.90
2202;DHT22;1107;48.654;9.250;2023-05-20T10:41:42;23.30;99.90
2202;DHT22;1107;48.654;9.250;2023-05-20T10:44:09;23.60;99.90
2202;DHT22;1107;48.654;9.250;2023-05-20T10:46:36;23.50;99.90
2202;DHT22;1107;48.654;9.250;2023-05-20T10:49:05;23.90;99.90
2202;DHT22;1107;48.654;9.250;2023-05-20T10:51:44;24.00;99.90
2202;DHT22;1107;48.654;9.250;2023-05-20T10:54:12;24.40;99.90
2202;DHT22;1107;48.654;9.250;2023-05-20T10:56:50;24.30;99.90
2202;DHT22;1107;48.654;9.250;2023-05-20T10:59:17;24.80;99.90
2202;DHT22;1107;48.654;9.250;2023-05-20T11:01:46;24.40;99.90
2202;DHT22;1107;48.654;9.250;2023-05-20T11:04:15;24.60;99.90
2202;DHT22;1107;48.654;9.250;2023-05-20T11:06:49;24.70;99.90
2202;DHT22;1107;48.654;9.250;2023-05-20T11:09:19;25.00;99.90
2202;DHT22;1107;48.654;9.250;2023-05-20T11:11:46;25.10;99.90
2202;DHT22;1107;48.654;9.250;2023-05-20T11:14:13;25.40;99.90
2202;DHT22;1107;48.654;9.250;2023-05-20T11:16:42;25.80;99.90
2202;DHT22;1107;48.654;9.250;2023-05-20T11:19:15;25.20;99.90
2202;DHT22;1107;48.654;9.250;2023-05-20T11:21:43;25.10;99.90
2202;DHT22;1107;48.654;9.250;2023-05-20T11:24:11;25.10;99.90
2202;DHT22;1107;48.654;9.250;2023-05-20T11:26:38;25.30;99.90
2202;DHT22;1107;48.654;9.250;2023-05-20T11:29:05;25.80;99.90
2202;DHT22;1107;48.654;9.250;2023-05-20T11:31:32;25.50;99.90
2202;DHT22;1107;48.654;9.250;2023-05-20T11:33:59;24.90;99.90
2202;DHT22;1107;48.654;9.250;2023-05-20T11:36:30;25.00;99.90
2202;DHT22;1107;48.654;9.250;2023-05-20T11:38:57;24.50;99.90
2202;DHT22;1107;48.654;9.250;2023-05-20T11:41:24;24.20;99.90
2202;DHT22;1107;48.654;9.250;2023-05-20T11:43:56;23.90;99.90
2202;DHT22;1107;48.654;9.250;2023-05-20T11:46:23;24.40;99.90
2202;DHT22;1107;48.654;9.250;2023-05-20T11:48:51;24.80;99.90
2202;DHT22;1107;48.654;9.250;2023-05-20T11:51:22;24.80;99.90
2202;DHT22;1107;48.654;9.250;2023-05-20T11:53:50;24.10;99.90
2202;DHT22;1107;48.654;9.250;2023-05-20T11:56:17;23.70;99.90
2202;DHT22;1107;48.654;9.250;2023-05-20T11:58:44;23.70;99.90
2202;DHT22;1107;48.654;9.250;2023-05-20T12:01:11;23.60;99.90
2202;DHT22;1107;48.654;9.250;2023-05-20T12:03:38;23.40;99.90
2202;DHT22;1107;48.654;9.250;2023-05-20T12:06:05;23.50;99.90
2202;DHT22;1107;48.654;9.250;2023-05-20T12:08:32;23.70;99.90
2202;DHT22;1107;48.654;9.250;2023-05-20T12:11:00;24.10;99.90
2202;DHT22;1107;48.654;9.250;2023-05-20T12:13:27;24.30;99.90
2202;DHT22;1107;48.654;9.250;2023-05-20T12:15:54;24.20;99.90
2202;DHT22;1107;48.654;9.250;2023-05-20T12:18:21;24.70;99.90
2202;DHT22;1107;48.654;9.250;2023-05-20T12:20:48;25.20;99.90
2202;DHT22;1107;48.654;9.250;2023-05-20T12:23:15;25.10;99.90
2202;DHT22;1107;48.654;9.250;2023-05-20T12:25:42;24.50;99.90
2202;DHT22;1107;48.654;9.250;2023-05-20T12:28:11;24.10;99.90
2202;DHT22;1107;48.654;9.250;2023-05-20T12:30:39;23.90;99.90
2202;DHT22;1107;48.654;9.250;2023-05-20T12:33:06;23.70;99.90
2202;DHT22;1107;48.654;9.250;2023-05-20T12:35:37;23.70;99.90
2202;DHT22;1107;48.654;9.250;2023-05-20T12:38:05;23.90;99.90
2202;DHT22;1107;48.654;9.250;2023-05-20T12:40:32;24.70;99.90
2202;DHT22;1107;48.654;9.250;2023-05-20T12:43:00;25.30;99.90
2202;DHT22;1107;48.654;9.250;2023-05-20T12:45:28;25.20;99.90
2202;DHT22;1107;48.654;9.250;2023-05-20T12:47:56;24.80;99.90
2202;DHT22;1107;48.654;9.250;2023-05-20T12:50:23;24.80;99.90
2202;DHT22;1107;48.654;9.250;2023-05-20T12:52:51;25.20;99.90
2202;DHT22;1107;48.654;9.250;2023-05-20T12:55:18;25.50;99.90
2202;DHT22;1107;48.654;9.250;2023-05-20T12:57:46;25.80;99.90
2202;DHT22;1107;48.654;9.250;2023-05-20T13:00:14;25.90;99.90
2202;DHT22;1107;48.654;9.250;2023-05-20T13:02:42;26.10;99.90
2202;DHT22;1107;48.654;9.250;2023-05-20T13:05:09;25.90;99.90
2202;DHT22;1107;48.654;9.250;2023-05-20T13:07:37;25.60;99.90
2202;DHT22;1107;48.654;9.250;2023-05-20T13:10:06;25.10;99.90
2202;DHT22;1107;48.654;9.250;2023-05-20T13:12:35;24.80;99.90
2202;DHT22;1107;48.654;9.250;2023-05-20T13:15:02;24.60;99.90
2202;DHT22;1107;48.654;9.250;2023-05-20T13:17:29;24.40;99.90
2202;DHT22;1107;48.654;9.250;2023-05-20T13:19:57;24.20;99.90
2202;DHT22;1107;48.654;9.250;2023-05-20T13:22:24;24.00;99.90
2202;DHT22;1107;48.654;9.250;2023-05-20T13:24:51;24.00;99.90
2202;DHT22;1107;48.654;9.250;2023-05-20T13:27:19;24.00;99.90
2202;DHT22;1107;48.654;9.250;2023-05-20T13:29:45;24.00;99.90
2202;DHT22;1107;48.654;9.250;2023-05-20T13:32:12;24.10;99.90
2202;DHT22;1107;48.654;9.250;2023-05-20T13:34:39;24.10;99.90
2202;DHT22;1107;48.654;9.250;2023-05-20T13:37:08;23.90;99.90
2202;DHT22;1107;48.654;9.250;2023-05-20T13:39:35;23.70;99.90
2202;DHT22;1107;48.654;9.250;2023-05-20T13:42:02;23.80;99.90
2202;DHT22;1107;48.654;9.250;2023-05-20T13:44:29;23.90;99.90
2202;DHT22;1107;48.654;9.250;2023-05-20T13:46:56;24.20;99.90
2202;DHT22;1107;48.654;9.250;2023-05-20T13:49:23;24.40;99.90
2202;DHT22;1107;48.654;9.250;2023-05-20T13:51:51;24.40;99.90
2202;DHT22;1107;48.654;9.250;2023-05-20T13:54:19;24.50;99.90
2202;DHT22;1107;48.654;9.250;2023-05-20T13:56:46;24.50;99.90
2202;DHT22;1107;48.654;9.250;2023-05-20T13:59:17;24.40;99.90
2202;DHT22;1107;48.654;9.250;2023-05-20T14:01:45;24.20;99.90
2202;DHT22;1107;48.654;9.250;2023-05-20T14:04:12;24.40;99.90
2202;DHT22;1107;48.654;9.250;2023-05-20T14:06:39;24.30;99.90
2202;DHT22;1107;48.654;9.250;2023-05-20T14:09:07;24.20;99.90
2202;DHT22;1107;48.654;9.250;2023-05-20T14:11:36;24.20;99.90
2202;DHT22;1107;48.654;9.250;2023-05-20T14:14:02;24.10;99.90
2202;DHT22;1107;48.654;9.250;2023-05-20T14:16:30;24.10;99.90
2202;DHT22;1107;48.654;9.250;2023-05-20T14:18:57;24.00;99.90
2202;DHT22;1107;48.654;9.250;2023-05-20T14:21:24;23.70;99.90
2202;DHT22;1107;48.654;9.250;2023-05-20T14:23:51;23.90;99.90
2202;DHT22;1107;48.654;9.250;2023-05-20T14:26:18;23.90;99.90
2202;DHT22;1107;48.654;9.250;2023-05-20T14:28:47;23.60;99.90
2202;DHT22;1107;48.654;9.250;2023-05-20T14:31:14;23.40;99.90
2202;DHT22;1107;48.654;9.250;2023-05-20T14:33:41;23.30;99.90
2202;DHT22;1107;48.654;9.250;2023-05-20T14:36:09;23.30;99.90
2202;DHT22;1107;48.654;9.250;2023-05-20T14:38:36;23.30;99.90
2202;DHT22;1107;48.654;9.250;2023-05-20T14:41:03;23.20;99.90
2202;DHT22;1107;48.654;9.250;2023-05-20T14:43:30;23.30;99.90
2202;DHT22;1107;48.654;9.250;2023-05-20T14:45:59;23.40;99.90
2202;DHT22;1107;48.654;9.250;2023-05-20T14:48:26;23.50;99.90
2202;DHT22;1107;48.654;9.250;2023-05-20T14:50:53;23.50;99.90
2202;DHT22;1107;48.654;9.250;2023-05-20T14:53:21;23.50;99.90
2202;DHT22;1107;48.654;9.250;2023-05-20T14:55:48;23.70;99.90
2202;DHT22;1107;48.654;9.250;2023-05-20T14:58:15;23.70;99.90
2202;DHT22;1107;48.654;9.250;2023-05-20T15:00:42;23.60;99.90
2202;DHT22;1107;48.654;9.250;2023-05-20T15:03:10;23.50;99.90
2202;DHT22;1107;48.654;9.250;2023-05-20T15:05:37;23.40;99.90
2202;DHT22;1107;48.654;9.250;2023-05-20T15:08:05;23.40;99.90
2202;DHT22;1107;48.654;9.250;2023-05-20T15:10:32;23.40;99.90
2202;DHT22;1107;48.654;9.250;2023-05-20T15:12:59;23.50;99.90
2202;DHT22;1107;48.654;9.250;2023-05-20T15:15:26;23.50;99.90
2202;DHT22;1107;48.654;9.250;2023-05-20T15:17:53;23.40;99.90
2202;DHT22;1107;48.654;9.250;2023-05-20T15:20:22;23.40;99.90
2202;DHT22;1107;48.654;9.250;2023-05-20T15:22:49;23.30;99.90
2202;DHT22;1107;48.654;9.250;2023-05-20T15:25:16;23.20;99.90
2202;DHT22;1107;48.654;9.250;2023-05-20T15:27:43;23.20;99.90
2202;DHT22;1107;48.654;9.250;2023-05-20T15:30:11;23.20;99.90
2202;DHT22;1107;48.654;9.250;2023-05-20T15:32:38;23.40;99.90
2202;DHT22;1107;48.654;9.250;2023-05-20T15:35:06;23.50;99.90
2202;DHT22;1107;48.654;9.250;2023-05-20T15:37:35;23.50;99.90
2202;DHT22;1107;48.654;9.250;2023-05-20T15:40:02;23.60;99.90
2202;DHT22;1107;48.654;9.250;2023-05-20T15:42:30;23.70;99.90
2202;DHT22;1107;48.654;9.250;2023-05-20T15:44:57;23.70;99.90
2202;DHT22;1107;48.654;9.250;2023-05-20T15:47:25;23.70;99.90
2202;DHT22;1107;48.654;9.250;2023-05-20T15:49:52;23.70;99.90
2202;DHT22;1107;48.654;9.250;2023-05-20T15:52:21;23.60;99.90
2202;DHT22;1107;48.654;9.250;2023-05-20T15:54:50;23.40;99.90
2202;DHT22;1107;48.654;9.250;2023-05-20T15:57:17;23.30;99.90
2202;DHT22;1107;48.654;9.250;2023-05-20T15:59:44;23.30;99.90
2202;DHT22;1107;48.654;9.250;2023-05-20T16:02:11;23.30;99.90
2202;DHT22;1107;48.654;9.250;2023-05-20T16:04:38;23.40;99.90
2202;DHT22;1107;48.654;9.250;2023-05-20T16:07:05;23.30;99.90
2202;DHT22;1107;48.654;9.250;2023-05-20T16:09:33;23.40;99.90
2202;DHT22;1107;48.654;9.250;2023-05-20T16:12:01;23.40;99.90
2202;DHT22;1107;48.654;9.250;2023-05-20T16:14:29;23.40;99.90